Terminal Aerodrome Forecast
Issued by NWS Pueblo, CO

Home | Current Version | Previous Version | Text Only | Print | Product List | Glossary On
Versions: 1 2 3 4 5 6 7 8 9 10 11 12 13
000
FTUS45 KPUB 152320
TAFCOS
TAF
KCOS 152320Z 1600/1624 16011KT P6SM FEW110 BKN170
     FM160200 24010KT P6SM SCT110 BKN170
     FM160500 06007KT P6SM SCT080 BKN150
     FM161600 19011KT P6SM SCT110 BKN200=

USA.gov is the U.S. government's official web portal to all federal, state and local government web resources and services.